Time;durP1;ratioP1;P1;durP2;ratioP2;P2;SDS_P1;SDS_P2;PMS_P1;PMS_P2;Temp;Humidity;BMP_temperature;BMP_pressure;BME280_temperature;BME280_humidity;BME280_pressure;Samples;Min_cycle;Max_cycle;Signal;HPM_P1;HPM_P2
2023/07/18 00:02:18;;;;;;;2.38;1.40;;;19.80;44.80;;;21.59;36.20;98196.78;5031278;28;20068;-59
2023/07/18 00:04:46;;;;;;;3.25;1.38;;;19.80;44.90;;;21.59;36.64;98190.53;5031594;28;20170;-59
2023/07/18 00:07:13;;;;;;;2.22;1.80;;;19.80;44.90;;;21.56;36.34;98191.00;5031586;28;20064;-59
2023/07/18 00:09:41;;;;;;;2.20;1.50;;;19.80;45.00;;;21.54;36.23;98191.19;5031869;28;20037;-59
2023/07/18 00:12:09;;;;;;;3.88;1.60;;;19.80;45.00;;;21.51;36.60;98178.09;5030969;28;20037;-51
2023/07/18 00:14:37;;;;;;;3.65;1.83;;;19.70;45.00;;;21.50;36.50;98189.13;5031907;28;20041;-52
2023/07/18 00:17:05;;;;;;;2.20;1.38;;;19.70;45.10;;;21.48;36.29;98188.50;5031827;28;20060;-47
2023/07/18 00:19:33;;;;;;;2.15;1.15;;;19.70;45.00;;;21.48;37.01;98199.34;5031532;28;20515;-48
2023/07/18 00:22:01;;;;;;;3.95;1.88;;;19.70;45.30;;;21.43;36.89;98190.00;5030182;28;20042;-49
2023/07/18 00:24:28;;;;;;;5.72;1.90;;;19.60;45.20;;;21.44;36.70;98190.81;5031553;28;20064;-52
2023/07/18 00:26:57;;;;;;;2.53;1.50;;;19.70;45.10;;;21.42;36.64;98190.19;5031207;28;20064;-47
2023/07/18 00:29:24;;;;;;;1.95;1.60;;;19.70;44.90;;;;;;5030236;28;20459;-51
2023/07/18 00:31:52;;;;;;;4.78;1.77;;;19.60;44.80;;;21.36;36.54;98186.47;5029262;28;20045;-52
2023/07/18 00:34:20;;;;;;;4.40;1.73;;;19.60;44.50;;;21.35;36.32;98190.25;5029833;28;20489;-48
2023/07/18 00:36:47;;;;;;;2.80;1.63;;;19.60;44.50;;;21.32;36.56;98187.13;5030060;28;20072;-52
2023/07/18 00:39:15;;;;;;;3.20;2.03;;;19.60;44.30;;;21.32;36.18;98193.38;5006195;28;20056;-48
2023/07/18 00:41:44;;;;;;;4.22;1.60;;;19.60;44.30;;;21.30;36.71;98189.22;5031131;28;20037;-49
2023/07/18 00:44:11;;;;;;;2.80;1.55;;;19.60;44.70;;;21.28;36.25;98185.91;5030166;28;20383;-49
2023/07/18 00:46:39;;;;;;;1.77;1.38;;;19.60;44.50;;;21.26;36.44;98180.69;5030632;28;20505;-50
2023/07/18 00:49:08;;;;;;;1.63;1.40;;;19.50;44.60;;;21.24;36.90;98183.63;5029567;28;20049;-53
2023/07/18 00:51:36;;;;;;;2.13;1.60;;;19.60;45.40;;;21.22;36.98;98190.31;5029735;28;20034;-49
2023/07/18 00:54:05;;;;;;;3.13;1.70;;;19.50;45.90;;;21.20;37.13;98190.50;5021804;28;20046;-51
2023/07/18 00:56:37;;;;;;;4.35;1.98;;;19.40;46.20;;;21.18;37.21;98191.78;5030955;28;20038;-50
2023/07/18 00:59:06;;;;;;;3.28;1.42;;;19.40;46.30;;;21.17;37.42;98184.69;5030151;28;20065;-48
2023/07/18 01:01:34;;;;;;;2.47;1.55;;;19.40;46.10;;;21.15;37.10;98189.50;5029422;28;20520;-49
2023/07/18 01:04:03;;;;;;;3.30;1.70;;;19.40;46.00;;;21.12;37.71;98190.78;5029613;28;20045;-60
2023/07/18 01:06:30;;;;;;;5.32;1.67;;;19.30;46.60;;;21.10;37.21;98190.16;5030505;28;20067;-59
2023/07/18 01:08:58;;;;;;;1.95;1.50;;;19.30;46.40;;;21.08;37.47;98184.13;5029320;28;20045;-59
2023/07/18 01:11:25;;;;;;;2.97;1.42;;;19.30;46.40;;;21.02;37.42;98180.41;5013150;28;20049;-59
2023/07/18 01:13:53;;;;;;;2.40;1.60;;;19.20;46.70;;;21.01;37.85;98184.19;5029296;28;20046;-60
2023/07/18 01:16:22;;;;;;;2.97;1.50;;;19.20;47.40;;;20.98;37.98;98175.66;5030001;28;20048;-60
2023/07/18 01:18:50;;;;;;;2.15;1.50;;;19.10;47.40;;;20.93;38.23;98176.28;5029659;28;20048;-60
2023/07/18 01:21:21;;;;;;;1.90;1.48;;;19.10;47.80;;;20.89;38.04;98174.22;5021701;28;20042;-59
2023/07/18 01:23:49;;;;;;;2.08;1.40;;;19.00;47.90;;;20.81;38.24;98169.88;5031092;28;20501;-59
2023/07/18 01:26:17;;;;;;;3.33;1.65;;;18.90;48.30;;;20.79;38.56;98171.97;5029156;28;20048;-60
2023/07/18 01:28:46;;;;;;;4.03;1.70;;;18.80;48.30;;;20.75;38.32;98168.88;5013813;28;20195;-60
2023/07/18 01:31:13;;;;;;;4.10;1.70;;;18.80;49.00;;;20.72;38.74;98163.06;5030577;28;20053;-59
2023/07/18 01:33:44;;;;;;;3.45;1.50;;;18.80;48.80;;;20.65;39.10;98155.78;5032247;28;20046;-59
2023/07/18 01:36:11;;;;;;;1.63;1.50;;;18.80;49.50;;;20.63;38.98;98159.75;5034063;28;20044;-60
2023/07/18 01:38:39;;;;;;;3.97;1.55;;;18.80;49.50;;;20.63;39.02;98167.88;5034578;28;20057;-59
2023/07/18 01:41:08;;;;;;;7.10;1.60;;;18.70;49.20;;;20.60;39.16;98162.88;5033924;28;20049;-60
2023/07/18 01:43:36;;;;;;;2.80;1.77;;;18.70;50.10;;;20.58;39.07;98165.75;5034049;28;20046;-60
2023/07/18 01:46:03;;;;;;;2.35;1.50;;;18.70;49.80;;;20.57;39.48;98161.41;5016419;28;20041;-59
2023/07/18 01:48:32;;;;;;;4.03;1.67;;;18.70;49.50;;;20.55;39.59;98154.53;5032830;28;20052;-59
2023/07/18 01:50:59;;;;;;;2.78;1.60;;;18.70;50.00;;;20.51;39.66;98150.59;5032519;28;20037;-59
2023/07/18 01:53:27;;;;;;;2.67;1.60;;;18.60;50.20;;;20.48;39.71;98156.44;5033544;28;20037;-60
2023/07/18 01:55:58;;;;;;;6.75;1.90;;;18.50;50.50;;;20.45;39.83;98154.97;5033401;28;20048;-60
2023/07/18 01:58:25;;;;;;;3.92;1.75;;;18.50;50.60;;;20.42;39.49;98158.13;5025305;28;20038;-59
2023/07/18 02:00:53;;;;;;;7.30;1.83;;;18.50;50.40;;;20.40;39.72;98152.09;5033291;28;20050;-59
2023/07/18 02:03:21;;;;;;;3.63;2.47;;;18.50;50.80;;;20.42;39.81;98163.53;5032230;28;20052;-59
2023/07/18 02:05:51;;;;;;;1.75;1.40;;;18.50;50.70;;;20.42;39.98;98167.06;5031891;28;20050;-59
2023/07/18 02:08:19;;;;;;;3.28;1.63;;;18.50;50.60;;;20.39;40.16;98163.94;5032175;28;20045;-59
2023/07/18 02:10:47;;;;;;;2.88;1.80;;;18.50;50.80;;;20.38;39.99;98155.00;5032951;28;20057;-59
2023/07/18 02:13:14;;;;;;;4.35;1.50;;;18.50;50.90;;;20.36;40.33;98157.09;5015780;28;20120;-59
2023/07/18 02:15:42;;;;;;;2.50;1.95;;;18.50;51.10;;;20.35;39.95;98157.31;5033731;28;20037;-58
2023/07/18 02:18:10;;;;;;;4.65;1.83;;;18.50;50.70;;;20.34;40.08;98153.78;5033646;28;20056;-60
2023/07/18 02:20:37;;;;;;;1.63;1.30;;;18.50;50.60;;;20.32;40.42;98149.63;5015988;28;20049;-59
2023/07/18 02:23:08;;;;;;;5.00;1.70;;;18.50;51.20;;;20.31;40.48;98142.53;5031858;28;20049;-60
2023/07/18 02:25:39;;;;;;;2.75;1.70;;;18.40;51.60;;;20.29;40.43;98144.63;5033654;28;20037;-59
2023/07/18 02:28:07;;;;;;;5.93;2.05;;;18.40;51.60;;;20.29;40.53;98144.63;5033610;28;20049;-60
2023/07/18 02:30:36;;;;;;;2.47;1.65;;;18.40;51.50;;;20.28;40.29;98151.91;5033209;28;20144;-60
2023/07/18 02:33:06;;;;;;;2.75;1.63;;;18.40;51.50;;;20.25;40.57;98149.63;5033013;28;20095;-59
2023/07/18 02:35:34;;;;;;;2.00;1.48;;;18.40;51.60;;;20.23;40.63;98149.00;5033478;28;20029;-60
2023/07/18 02:38:02;;;;;;;4.72;1.77;;;18.40;51.60;;;20.22;40.33;98150.03;5015603;28;20037;-60
2023/07/18 02:40:29;;;;;;;3.22;2.22;;;18.30;51.40;;;20.21;40.57;98151.91;5031730;28;20045;-60
2023/07/18 02:42:57;;;;;;;2.58;1.70;;;18.40;51.20;;;20.20;40.50;98150.28;5031431;28;20049;-60
2023/07/18 02:45:24;;;;;;;3.08;1.70;;;18.40;51.10;;;20.20;40.25;98149.41;5030910;28;20049;-59
2023/07/18 02:47:52;;;;;;;2.95;1.70;;;18.40;51.00;;;20.18;40.42;98154.22;5031988;28;20045;-59
2023/07/18 02:50:21;;;;;;;5.40;1.90;;;18.40;51.00;;;20.15;40.34;98158.16;5033275;28;20057;-59
2023/07/18 02:52:49;;;;;;;4.72;1.88;;;18.30;50.90;;;20.12;40.23;98158.56;5032657;28;20033;-59
2023/07/18 02:55:17;;;;;;;3.92;1.98;;;18.30;51.20;;;20.05;40.48;98157.78;5033084;28;20420;-60
2023/07/18 02:57:44;;;;;;;2.78;1.70;;;18.20;51.50;;;20.03;40.58;98162.56;5015569;28;20048;-60
2023/07/18 03:00:25;;;;;;;2.55;1.95;;;18.10;51.80;;;19.97;41.07;98148.00;5028839;28;20473;-59
2023/07/18 03:02:53;;;;;;;4.28;1.63;;;18.10;52.20;;;19.92;41.29;98152.38;5031810;28;20049;-59
2023/07/18 03:05:24;;;;;;;4.72;1.60;;;18.00;52.60;;;19.92;41.42;98160.47;5033272;28;20057;-52
2023/07/18 03:07:54;;;;;;;2.75;1.33;;;18.10;52.80;;;19.88;41.41;98156.53;5032691;28;20050;-51
2023/07/18 03:10:22;;;;;;;2.42;1.55;;;18.00;53.00;;;19.81;41.49;98153.81;5032716;28;20116;-51
2023/07/18 03:12:49;;;;;;;2.25;1.75;;;17.90;53.70;;;19.79;41.78;98158.59;5030823;28;20444;-50
2023/07/18 03:15:21;;;;;;;2.72;1.58;;;17.90;53.50;;;19.79;41.35;98164.00;5032667;28;20049;-51
2023/07/18 03:17:48;;;;;;;3.75;1.80;;;17.90;53.20;;;19.72;41.21;98155.91;5015494;28;20052;-48
2023/07/18 03:20:17;;;;;;;2.95;1.73;;;17.80;52.70;;;19.67;41.36;98161.88;5032500;28;20045;-51
2023/07/18 03:22:49;;;;;;;2.70;1.50;;;17.80;53.20;;;19.68;41.54;98165.44;5031239;28;20054;-52
2023/07/18 03:25:19;;;;;;;2.50;1.60;;;17.80;53.00;;;19.70;41.64;98163.38;5032379;28;20065;-52
2023/07/18 03:27:47;;;;;;;2.60;1.70;;;17.90;53.30;;;19.71;41.70;98172.28;5032971;28;20033;-52
2023/07/18 03:30:16;;;;;;;3.83;2.03;;;17.90;53.10;;;19.71;41.58;98162.31;5030552;28;20053;-51
2023/07/18 03:32:44;;;;;;;3.83;1.88;;;18.00;52.70;;;19.70;41.57;98162.50;5030372;28;20046;-50
2023/07/18 03:35:14;;;;;;;3.65;1.60;;;17.90;52.90;;;19.67;41.73;98172.69;5032343;28;20493;-50
2023/07/18 03:37:41;;;;;;;4.35;1.80;;;17.90;53.30;;;19.66;41.73;98151.31;5031934;28;20037;-52
2023/07/18 03:40:10;;;;;;;2.55;1.58;;;17.90;53.20;;;19.64;41.86;98159.63;5031299;28;20050;-47
2023/07/18 03:42:38;;;;;;;3.35;2.20;;;17.90;53.40;;;19.62;41.82;98155.47;5031795;28;20041;-50
2023/07/18 03:45:07;;;;;;;3.95;1.70;;;17.80;53.30;;;19.57;41.83;98158.78;5032123;28;20046;-53
2023/07/18 03:47:36;;;;;;;4.10;1.77;;;17.70;53.70;;;19.54;41.89;98150.25;5024420;28;20041;-49
2023/07/18 03:50:04;;;;;;;3.33;2.15;;;17.70;53.70;;;19.52;41.90;98155.03;5031721;28;20341;-50
2023/07/18 03:52:31;;;;;;;4.53;1.73;;;17.60;53.80;;;19.45;42.22;98150.47;5030335;28;20033;-52
2023/07/18 03:54:59;;;;;;;2.88;1.60;;;17.50;54.30;;;19.40;42.41;98141.31;5030746;28;20040;-49
2023/07/18 03:57:27;;;;;;;3.60;1.65;;;17.40;54.90;;;19.35;42.63;98144.63;5031937;28;20393;-51
2023/07/18 03:59:55;;;;;;;4.43;2.00;;;17.40;55.20;;;19.30;42.84;98144.41;5031683;28;20042;-50
2023/07/18 04:02:23;;;;;;;3.45;1.70;;;17.40;55.40;;;19.25;43.18;98142.34;5031028;28;20065;-50
2023/07/18 04:04:51;;;;;;;2.05;1.65;;;17.30;56.60;;;19.20;43.06;98136.72;5031044;28;20108;-51
2023/07/18 04:07:20;;;;;;;2.78;1.88;;;17.20;56.70;;;19.20;43.47;98133.19;5013943;28;20052;-50
2023/07/18 04:09:47;;;;;;;2.30;1.80;;;17.20;56.70;;;19.19;43.18;98132.38;5030503;28;20044;-52
2023/07/18 04:12:16;;;;;;;3.83;1.65;;;17.20;56.00;;;19.19;43.18;98132.38;5031323;28;20057;-48
2023/07/18 04:14:44;;;;;;;2.92;1.90;;;17.30;56.00;;;19.19;43.04;98136.91;5031528;28;20041;-53
2023/07/18 04:17:11;;;;;;;5.10;2.17;;;17.30;55.70;;;19.15;43.20;98138.34;5030215;28;20405;-50
2023/07/18 04:19:39;;;;;;;5.05;1.95;;;17.20;56.00;;;19.13;43.24;98132.34;5030851;28;20046;-51
2023/07/18 04:22:06;;;;;;;3.50;1.73;;;17.20;56.00;;;19.11;43.46;98132.53;5031220;28;20049;-49
2023/07/18 04:24:34;;;;;;;5.85;1.90;;;17.20;56.30;;;19.10;43.52;98125.50;5031443;28;20046;-50
2023/07/18 04:27:02;;;;;;;3.83;1.83;;;17.20;56.50;;;19.11;43.64;98126.31;5031368;28;20045;-52
2023/07/18 04:29:30;;;;;;;3.17;2.00;;;17.20;56.70;;;19.12;43.71;98131.50;5031065;28;20045;-53
2023/07/18 04:31:57;;;;;;;4.57;3.05;;;17.30;56.70;;;19.13;43.67;98130.47;5031017;28;20030;-50
2023/07/18 04:34:25;;;;;;;3.83;1.80;;;17.30;56.50;;;19.15;43.78;98132.97;5031417;28;20037;-48
2023/07/18 04:36:52;;;;;;;4.00;1.70;;;17.30;56.60;;;19.19;43.80;98134.22;5031180;28;20041;-53
2023/07/18 04:39:20;;;;;;;4.05;1.92;;;17.40;56.20;;;19.20;43.61;98125.91;5031280;28;20048;-47
2023/07/18 04:41:49;;;;;;;3.13;1.85;;;17.40;56.00;;;19.23;43.59;98130.91;5030895;28;20049;-51
2023/07/18 04:44:23;;;;;;;8.75;1.95;;;17.50;56.00;;;19.26;43.37;98133.19;5029546;28;20547;-53
2023/07/18 04:46:52;;;;;;;3.72;1.90;;;17.60;55.40;;;19.31;43.18;98127.19;5031370;28;20044;-49
2023/07/18 04:49:22;;;;;;;2.83;2.00;;;17.60;54.80;;;19.34;43.18;98125.94;5029883;28;20050;-51
2023/07/18 04:51:51;;;;;;;3.08;1.90;;;17.70;54.80;;;19.38;43.04;98128.00;5031260;28;20373;-51
2023/07/18 04:54:19;;;;;;;6.70;2.08;;;17.70;54.70;;;19.42;43.03;98128.44;5029616;28;20042;-49
2023/07/18 04:56:46;;;;;;;3.40;1.95;;;17.80;54.70;;;19.46;43.41;98124.28;5031395;28;20041;-50
2023/07/18 04:59:14;;;;;;;4.45;2.13;;;17.90;54.90;;;19.50;43.35;98130.09;5030918;28;20041;-51
2023/07/18 05:01:42;;;;;;;3.53;2.47;;;17.90;54.90;;;19.53;43.22;98140.50;5031010;28;20052;-49
2023/07/18 05:04:09;;;;;;;4.45;2.25;;;17.90;54.80;;;19.56;43.29;98137.38;5030835;28;20046;-50
2023/07/18 05:06:37;;;;;;;5.05;2.15;;;18.00;54.70;;;19.57;43.23;98128.25;5030498;28;20050;-52
2023/07/18 05:09:04;;;;;;;3.97;2.15;;;18.00;54.50;;;19.60;43.39;98119.72;5033275;28;20056;-48
2023/07/18 05:11:32;;;;;;;6.22;2.40;;;18.00;54.90;;;19.63;43.63;98113.91;5034577;28;20261;-50
2023/07/18 05:14:02;;;;;;;6.32;2.65;;;18.00;54.90;;;19.65;43.33;98120.75;5033938;28;20046;-49
2023/07/18 05:16:29;;;;;;;3.63;2.35;;;18.00;54.90;;;19.66;43.41;98121.59;5034854;28;20046;-47
2023/07/18 05:18:57;;;;;;;5.07;2.30;;;18.10;55.00;;;19.68;43.44;98120.34;5034560;28;20481;-51
2023/07/18 05:21:24;;;;;;;5.22;2.50;;;18.10;55.20;;;19.71;43.74;98115.56;5035096;28;20045;-60
2023/07/18 05:23:52;;;;;;;2.97;2.47;;;18.10;55.60;;;19.74;43.90;98110.63;5034863;28;20049;-60
2023/07/18 05:26:19;;;;;;;4.93;3.08;;;18.20;55.90;;;19.76;44.04;98111.25;5034710;28;20049;-60
2023/07/18 05:28:47;;;;;;;4.80;2.78;;;18.20;55.80;;;19.80;44.31;98111.66;5034560;28;20116;-60
2023/07/18 05:31:15;;;;;;;4.65;2.85;;;18.20;56.30;;;19.81;44.24;98116.84;5032612;28;20054;-60
2023/07/18 05:33:44;;;;;;;4.13;2.20;;;18.20;56.30;;;19.82;44.12;98113.09;5033359;28;20413;-60
2023/07/18 05:36:11;;;;;;;3.33;2.60;;;18.30;56.10;;;19.82;44.20;98113.09;5034313;28;20413;-60
2023/07/18 05:38:39;;;;;;;5.35;2.90;;;18.20;56.00;;;19.86;44.24;98113.50;5034359;28;20037;-60
2023/07/18 05:41:06;;;;;;;4.07;2.42;;;18.30;56.30;;;19.86;44.46;98108.94;5032934;28;20061;-61
2023/07/18 05:43:34;;;;;;;5.30;2.65;;;18.30;56.80;;;19.89;44.58;98110.41;5034059;28;20141;-61
2023/07/18 05:46:01;;;;;;;7.25;2.72;;;18.30;56.90;;;19.88;44.76;98116.00;5034247;28;20038;-60
2023/07/18 05:48:30;;;;;;;4.60;2.65;;;18.40;56.60;;;19.86;44.90;98106.22;5033615;28;20042;-60
2023/07/18 05:51:01;;;;;;;6.22;2.63;;;18.50;56.60;;;19.89;45.08;98110.41;5034202;28;20048;-60
2023/07/18 05:53:28;;;;;;;4.85;2.45;;;18.50;57.30;;;19.95;45.00;98108.72;5034174;28;20049;-61
2023/07/18 05:55:56;;;;;;;5.90;2.65;;;18.50;57.30;;;19.97;45.00;98102.06;5034094;28;20049;-58
2023/07/18 05:58:23;;;;;;;9.88;3.17;;;18.60;57.00;;;20.02;45.16;98099.56;5033789;28;20057;-57
2023/07/18 06:00:51;;;;;;;7.07;2.75;;;18.60;57.00;;;20.08;45.05;98097.88;5031366;28;20037;-59
2023/07/18 06:03:19;;;;;;;5.10;2.22;;;18.60;57.00;;;20.14;44.69;98096.22;5032698;28;20416;-59
2023/07/18 06:05:55;;;;;;;12.15;2.65;;;18.70;56.60;;;20.17;44.51;98099.31;5026159;28;20038;-58
2023/07/18 06:08:23;;;;;;;5.47;2.38;;;18.60;56.50;;;20.20;44.41;98088.09;5033558;28;20049;-55
2023/07/18 06:10:58;;;;;;;3.85;2.35;;;18.70;56.50;;;20.23;44.46;98089.53;5033819;28;20045;-58
2023/07/18 06:13:26;;;;;;;5.03;2.78;;;18.70;57.10;;;20.25;44.12;98082.88;5033658;28;20497;-59
2023/07/18 06:15:54;;;;;;;3.60;2.08;;;18.80;55.60;;;20.27;44.22;98088.88;5033435;28;20045;-58
2023/07/18 06:18:22;;;;;;;3.92;2.17;;;18.90;55.60;;;20.33;44.05;98083.69;5033807;28;20413;-60
2023/07/18 06:20:50;;;;;;;4.72;1.92;;;18.90;55.00;;;20.33;43.84;98079.09;5032308;28;20033;-60
2023/07/18 06:23:17;;;;;;;6.72;2.45;;;19.00;54.30;;;20.36;43.61;98075.16;5033279;28;20061;-58
2023/07/18 06:25:46;;;;;;;8.10;2.90;;;19.00;53.90;;;20.41;43.45;98075.31;5033570;28;20037;-61
2023/07/18 06:28:13;;;;;;;4.60;2.15;;;19.10;53.90;;;20.48;43.21;98081.56;5032325;28;20050;-59
2023/07/18 06:30:41;;;;;;;3.38;2.20;;;19.20;53.70;;;20.51;43.47;98078.44;5033150;28;20049;-60
2023/07/18 06:33:09;;;;;;;3.72;2.05;;;19.20;53.40;;;20.57;43.21;98079.41;5032694;28;20524;-60
2023/07/18 06:35:37;;;;;;;4.32;1.98;;;19.20;53.30;;;20.62;43.15;98077.75;5033351;28;20413;-59
2023/07/18 06:38:04;;;;;;;4.90;2.08;;;19.30;53.30;;;20.68;43.03;98077.97;5033675;28;20080;-59
2023/07/18 06:40:32;;;;;;;4.97;2.45;;;19.30;53.10;;;20.73;42.94;98073.56;5033207;28;20056;-60
2023/07/18 06:43:00;;;;;;;5.93;2.50;;;19.40;53.00;;;20.77;43.10;98072.09;5032658;28;20041;-60
2023/07/18 06:45:27;;;;;;;4.15;2.28;;;19.40;52.90;;;20.80;42.83;98068.97;5033065;28;20050;-59
2023/07/18 06:47:55;;;;;;;5.55;2.50;;;19.50;53.00;;;20.83;43.01;98065.78;5033032;28;20422;-60
2023/07/18 06:50:22;;;;;;;3.83;2.33;;;19.60;52.80;;;20.88;42.76;98067.03;5033092;28;20421;-62
2023/07/18 06:52:51;;;;;;;5.18;2.42;;;19.60;53.00;;;20.92;43.11;98073.66;5025067;28;20051;-61
2023/07/18 06:55:18;;;;;;;7.47;3.92;;;19.60;53.10;;;20.97;42.90;98071.13;5032732;28;20417;-61
2023/07/18 06:57:46;;;;;;;4.65;2.53;;;19.70;53.20;;;21.00;43.15;98068.00;5032886;28;20045;-60
2023/07/18 07:00:14;;;;;;;5.05;2.70;;;19.80;53.30;;;21.06;43.07;98067.13;5033121;28;20421;-60
2023/07/18 07:02:42;;;;;;;7.13;3.03;;;19.80;53.60;;;21.12;43.26;98062.72;5032795;28;20396;-61
2023/07/18 07:05:10;;;;;;;5.88;4.00;;;19.80;53.70;;;21.15;43.06;98067.69;5030796;28;20068;-60
2023/07/18 07:07:37;;;;;;;6.57;3.45;;;19.90;53.50;;;21.21;43.14;98069.53;5032636;28;20045;-61
2023/07/18 07:10:09;;;;;;;8.05;2.45;;;19.90;53.70;;;21.27;43.05;98059.69;5032949;28;20050;-61
2023/07/18 07:12:37;;;;;;;9.32;3.40;;;20.00;53.40;;;21.31;43.23;98050.91;5032816;28;20049;-60
2023/07/18 07:15:06;;;;;;;4.82;3.25;;;20.10;53.20;;;21.33;43.08;98051.53;5032721;28;20052;-60
2023/07/18 07:17:33;;;;;;;5.50;2.78;;;20.20;52.90;;;21.40;43.03;98046.91;5032139;28;20489;-60
2023/07/18 07:20:01;;;;;;;3.78;2.75;;;20.20;53.10;;;21.48;43.21;98051.25;5031392;28;20394;-60
2023/07/18 07:22:29;;;;;;;5.32;2.97;;;20.20;53.00;;;21.54;42.68;98044.94;5032244;28;20523;-60
2023/07/18 07:24:57;;;;;;;5.72;3.00;;;20.30;53.20;;;21.58;43.04;98040.72;5026150;28;20049;-60
2023/07/18 07:27:24;;;;;;;5.75;2.80;;;20.40;52.70;;;21.66;42.59;98044.22;5032218;28;20049;-60
2023/07/18 07:29:52;;;;;;;5.25;2.60;;;20.40;52.60;;;21.69;42.85;98038.31;5031777;28;20049;-60
2023/07/18 07:32:19;;;;;;;6.47;3.03;;;20.50;52.50;;;21.77;42.70;98038.88;5030672;28;20061;-60
2023/07/18 07:34:47;;;;;;;3.60;2.85;;;20.60;52.30;;;21.82;42.16;98039.00;5032310;28;20406;-60
2023/07/18 07:37:15;;;;;;;4.90;2.72;;;20.60;51.60;;;21.85;41.81;98034.19;5031420;28;20057;-60
2023/07/18 07:39:43;;;;;;;6.45;2.92;;;20.70;51.20;;;21.89;42.19;98035.41;5032127;28;20050;-60
2023/07/18 07:42:11;;;;;;;4.75;2.85;;;20.70;51.20;;;21.93;41.57;98023.91;5031695;28;20049;-61
2023/07/18 07:44:38;;;;;;;4.32;2.67;;;20.80;50.80;;;21.97;41.94;98018.88;5032210;28;20053;-60
2023/07/18 07:47:06;;;;;;;7.00;2.55;;;20.80;50.70;;;22.03;41.77;98024.19;5031883;28;20049;-60
2023/07/18 07:49:33;;;;;;;4.78;2.83;;;20.80;50.80;;;22.06;41.64;98020.19;5030983;28;20054;-60
2023/07/18 07:52:01;;;;;;;5.60;3.10;;;20.90;51.70;;;22.11;41.55;98011.41;5031940;28;20044;-60
2023/07/18 07:54:28;;;;;;;5.28;2.53;;;20.90;50.90;;;22.15;41.68;98002.59;5032219;28;20049;-60
2023/07/18 07:56:56;;;;;;;4.07;2.25;;;21.00;50.60;;;22.22;41.59;98002.53;5032106;28;20390;-60
2023/07/18 07:59:24;;;;;;;6.57;3.08;;;21.00;50.70;;;22.26;41.46;98005.66;5031923;28;20516;-60
2023/07/18 08:01:51;;;;;;;5.07;3.05;;;21.10;50.60;;;22.31;41.17;97992.22;5031408;28;20049;-60
2023/07/18 08:04:20;;;;;;;3.40;2.03;;;21.10;50.20;;;22.34;40.85;97991.75;5031750;28;20102;-60
2023/07/18 08:06:48;;;;;;;4.45;2.58;;;21.20;49.70;;;22.39;40.50;97987.31;5030869;28;20049;-60
2023/07/18 08:09:15;;;;;;;4.25;2.53;;;21.20;49.00;;;22.46;40.34;97989.09;5031755;28;20045;-60
2023/07/18 08:11:43;;;;;;;4.10;2.38;;;21.30;48.90;;;22.52;40.20;97996.31;5031170;28;20053;-60
2023/07/18 08:14:11;;;;;;;4.95;2.78;;;21.40;48.50;;;22.58;40.05;97995.41;5031771;28;20038;-60
2023/07/18 08:16:39;;;;;;;5.57;2.20;;;21.50;48.30;;;22.62;39.68;97988.44;5031599;28;20390;-60
2023/07/18 08:19:07;;;;;;;4.95;3.15;;;21.50;47.70;;;22.68;39.90;97982.13;5031478;28;20049;-60
2023/07/18 08:21:36;;;;;;;10.55;2.55;;;21.60;47.60;;;22.72;39.55;97990.59;5031234;28;20041;-60
2023/07/18 08:24:04;;;;;;;4.43;2.22;;;21.60;47.50;;;22.79;39.56;97985.91;5023486;28;20049;-60
2023/07/18 08:26:33;;;;;;;5.82;2.92;;;21.70;47.20;;;22.83;39.25;97989.81;5031538;28;20037;-60
2023/07/18 08:29:01;;;;;;;4.40;2.38;;;21.70;46.90;;;22.87;39.20;97979.31;5030278;28;20045;-60
2023/07/18 08:31:29;;;;;;;6.35;2.78;;;21.80;46.70;;;22.89;39.28;97975.31;5030947;28;20053;-60
2023/07/18 08:33:57;;;;;;;8.23;2.83;;;21.80;46.80;;;22.94;39.30;97980.88;5031338;28;20232;-60
2023/07/18 08:36:25;;;;;;;5.15;2.72;;;21.80;46.80;;;23.00;38.94;97974.50;5031480;28;20049;-60
2023/07/18 08:38:53;;;;;;;5.50;2.60;;;21.90;46.80;;;23.07;38.80;97973.59;5031171;28;20045;-60
2023/07/18 08:41:21;;;;;;;3.15;2.22;;;22.00;46.40;;;23.11;38.69;97972.06;5031519;28;20080;-46
2023/07/18 08:43:50;;;;;;;7.45;2.83;;;22.10;45.70;;;23.16;38.71;97958.63;5028917;28;20456;-50
2023/07/18 08:46:18;;;;;;;3.70;2.55;;;22.10;46.00;;;23.23;38.09;97961.25;5031155;28;20049;-46
2023/07/18 08:48:47;;;;;;;2.97;2.20;;;22.20;45.30;;;23.30;37.97;97962.78;5031184;28;20314;-48
2023/07/18 08:51:15;;;;;;;5.93;3.30;;;22.20;44.80;;;23.34;38.06;97963.13;5031035;28;20049;-50
2023/07/18 08:53:43;;;;;;;3.47;1.98;;;22.30;44.80;;;23.39;37.46;97963.25;5031118;28;20041;-48
2023/07/18 08:56:11;;;;;;;5.15;2.47;;;22.40;44.60;;;23.43;37.51;97961.72;5030072;28;20064;-49
2023/07/18 08:58:39;;;;;;;5.50;2.00;;;22.30;44.00;;;23.44;37.37;97955.22;5030937;28;20045;-48
2023/07/18 09:01:08;;;;;;;3.83;2.15;;;22.40;44.00;;;23.50;37.11;97945.31;5030871;28;20053;-50
2023/07/18 09:03:36;;;;;;;3.33;1.70;;;22.40;43.70;;;23.56;36.78;97938.91;5026004;28;20049;-50
2023/07/18 09:06:15;;;;;;;4.88;2.00;;;22.50;43.40;;;23.61;36.60;97933.56;5031352;28;20049;-50
2023/07/18 09:08:43;;;;;;;3.05;2.20;;;22.50;43.20;;;23.67;36.39;97931.81;5029959;28;20045;-49
2023/07/18 09:11:14;;;;;;;4.47;2.42;;;22.60;42.80;;;23.75;36.29;97940.44;5030720;28;20054;-47
2023/07/18 09:13:43;;;;;;;4.88;2.17;;;22.70;42.50;;;23.75;35.98;97940.44;5030400;28;20054;-50
2023/07/18 09:16:15;;;;;;;4.45;1.95;;;22.70;42.00;;;23.80;35.89;97942.44;5030898;28;20042;-51
2023/07/18 09:18:47;;;;;;;4.20;2.20;;;22.70;42.20;;;23.85;36.24;97939.84;5030046;28;20041;-47
2023/07/18 09:21:18;;;;;;;3.67;2.63;;;22.80;42.30;;;23.92;36.07;97934.25;5023691;28;20046;-49
2023/07/18 09:23:47;;;;;;;5.07;2.60;;;22.80;42.30;;;23.98;35.91;97928.72;5030679;28;20345;-47
2023/07/18 09:26:18;;;;;;;3.95;3.35;;;22.90;42.10;;;24.03;35.62;97927.16;5030715;28;20292;-47
2023/07/18 09:28:48;;;;;;;2.55;2.33;;;23.00;41.60;;;24.05;35.38;97925.03;5030558;28;20064;-46
2023/07/18 09:31:20;;;;;;;3.67;2.67;;;22.90;41.40;;;24.08;35.40;97929.97;5030565;28;20045;-47
2023/07/18 09:33:51;;;;;;;4.28;2.33;;;23.00;41.40;;;24.14;35.51;97920.88;5029268;28;20048;-51
2023/07/18 09:36:26;;;;;;;3.22;1.85;;;23.10;41.40;;;24.23;35.22;97918.56;5030609;28;20049;-47
2023/07/18 09:38:54;;;;;;;2.95;1.92;;;23.10;40.40;;;24.29;35.22;97920.31;5030662;28;20041;-47
2023/07/18 09:41:22;;;;;;;4.30;2.15;;;23.20;40.90;;;24.36;35.23;97913.66;5030478;28;20056;-46
2023/07/18 09:43:53;;;;;;;4.30;2.55;;;23.30;41.20;;;24.47;35.03;97911.13;5030469;28;20049;-49
2023/07/18 09:46:40;;;;;;;3.20;2.75;;;23.40;40.80;;;24.58;34.99;97931.22;5029776;28;20068;-48
2023/07/18 09:49:09;;;;;;;7.90;2.30;;;23.50;40.90;;;24.65;34.95;97932.72;5030832;28;20050;-48
2023/07/18 09:51:46;;;;;;;;;;;23.70;40.50;;;24.80;35.15;97925.91;5029734;28;20057;-49
2023/07/18 09:54:15;;;;;;;6.50;2.22;;;23.90;38.50;;;24.94;34.60;97936.19;5021976;28;19921;-51
2023/07/18 09:56:44;;;;;;;3.22;2.33;;;24.00;39.70;;;25.05;34.62;97955.47;5032970;28;20044;-47
2023/07/18 09:59:13;;;;;;;4.82;2.30;;;24.10;39.60;;;25.17;34.04;97977.16;5033900;28;20041;-48
2023/07/18 10:01:40;;;;;;;7.20;2.75;;;24.30;39.20;;;25.26;33.67;97989.31;5032018;28;20440;-60
2023/07/18 10:04:08;;;;;;;5.20;2.78;;;24.40;38.90;;;25.34;33.63;98000.63;5033949;28;20049;-60
2023/07/18 10:06:36;;;;;;;4.15;3.05;;;24.50;38.70;;;25.41;33.87;97994.19;5033175;28;20093;-59
2023/07/18 10:09:04;;;;;;;3.83;2.60;;;24.60;38.70;;;25.49;33.75;97983.72;5034021;28;20048;-60
2023/07/18 10:11:32;;;;;;;5.22;3.13;;;24.60;38.60;;;25.57;33.97;97982.47;5033557;28;20045;-59
2023/07/18 10:14:05;;;;;;;3.30;2.40;;;24.80;38.80;;;25.66;33.54;97969.22;5033877;28;20052;-56
2023/07/18 10:16:41;;;;;;;6.60;2.55;;;24.80;38.00;;;25.70;33.95;97938.47;5033967;28;20409;-55
2023/07/18 10:19:18;;;;;;;8.15;4.32;;;24.90;38.40;;;25.74;33.54;97916.97;5033634;28;20049;-58
2023/07/18 10:21:46;;;;;;;4.90;2.90;;;24.80;38.40;;;25.77;33.55;97924.66;5033092;28;20052;-59
2023/07/18 10:24:20;;;;;;;6.20;2.85;;;24.80;38.90;;;25.80;33.43;97901.50;5033646;28;20583;-59
2023/07/18 10:26:52;;;;;;;6.57;3.05;;;24.90;38.40;;;25.82;33.52;97839.34;5032582;28;20042;-59